createdAt,value
2023-04-23T00:02:49.980Z,25.00
2023-04-23T00:05:18.194Z,24.83
2023-04-23T00:07:46.425Z,24.17
2023-04-23T00:10:14.958Z,25.20
2023-04-23T00:12:43.676Z,23.13
2023-04-23T00:15:14.706Z,24.73
2023-04-23T00:17:42.418Z,23.67
2023-04-23T00:20:11.872Z,24.70
2023-04-23T00:22:39.517Z,24.60
2023-04-23T00:25:07.855Z,25.20
2023-04-23T00:27:35.936Z,23.92
2023-04-23T00:30:04.272Z,23.08
2023-04-23T00:32:34.976Z,24.33
2023-04-23T00:35:02.666Z,23.97
2023-04-23T00:37:31.722Z,25.23
2023-04-23T00:39:59.364Z,24.02
2023-04-23T00:42:28.206Z,24.55
2023-04-23T00:44:56.002Z,26.25
2023-04-23T00:47:24.280Z,25.35
2023-04-23T00:49:53.279Z,26.13
2023-04-23T00:52:21.267Z,26.02
2023-04-23T00:54:50.354Z,26.05
2023-04-23T00:57:18.132Z,25.27
2023-04-23T00:59:46.164Z,26.83
2023-04-23T01:02:13.910Z,26.48
2023-04-23T01:04:42.401Z,27.63
2023-04-23T01:07:10.519Z,28.17
2023-04-23T01:09:38.216Z,27.65
2023-04-23T01:12:08.036Z,27.27
2023-04-23T01:14:38.239Z,28.98
2023-04-23T01:17:09.838Z,28.73
2023-04-23T01:19:37.810Z,28.17
2023-04-23T01:22:10.589Z,28.02
2023-04-23T01:24:39.555Z,29.27
2023-04-23T01:27:28.362Z,28.83
2023-04-23T01:29:56.347Z,29.52
2023-04-23T01:32:24.346Z,30.55
2023-04-23T01:34:54.091Z,29.17
2023-04-23T01:37:23.741Z,31.08
2023-04-23T01:39:51.585Z,31.27
2023-04-23T01:42:19.567Z,31.05
2023-04-23T01:44:47.263Z,30.27
2023-04-23T01:47:15.163Z,30.48
2023-04-23T01:49:42.948Z,30.40
2023-04-23T01:52:11.361Z,30.77
2023-04-23T01:54:40.824Z,30.23
2023-04-23T01:57:09.008Z,31.30
2023-04-23T01:59:59.173Z,31.90
2023-04-23T02:02:26.932Z,31.42
2023-04-23T02:04:55.318Z,28.10
2023-04-23T02:07:23.047Z,28.15
2023-04-23T02:09:52.085Z,30.40
2023-04-23T02:12:19.821Z,28.55
2023-04-23T02:14:47.479Z,30.10
2023-04-23T02:17:15.140Z,30.45
2023-04-23T02:19:42.857Z,30.58
2023-04-23T02:22:10.497Z,31.00
2023-04-23T02:24:39.000Z,31.45
2023-04-23T02:27:08.280Z,30.25
2023-04-23T02:29:36.849Z,30.77
2023-04-23T02:32:04.927Z,30.27
2023-04-23T02:34:32.731Z,32.25
2023-04-23T02:37:00.379Z,32.17
2023-04-23T02:39:28.026Z,29.15
2023-04-23T02:41:56.367Z,31.55
2023-04-23T02:44:25.494Z,30.13
2023-04-23T02:46:53.272Z,30.10
2023-04-23T02:49:21.194Z,28.27
2023-04-23T02:51:48.909Z,28.63
2023-04-23T02:54:16.621Z,30.10
2023-04-23T02:56:44.232Z,31.42
2023-04-23T02:59:12.510Z,29.30
2023-04-23T03:01:41.735Z,31.10
2023-04-23T03:04:12.375Z,31.75
2023-04-23T03:06:40.516Z,31.73
2023-04-23T03:09:08.923Z,30.40
2023-04-23T03:11:36.676Z,29.02
2023-04-23T03:14:04.425Z,31.80
2023-04-23T03:16:32.390Z,30.95
2023-04-23T03:19:02.220Z,30.75
2023-04-23T03:21:29.886Z,29.65
2023-04-23T03:23:57.513Z,32.78
2023-04-23T03:26:25.256Z,32.35
2023-04-23T03:28:52.955Z,31.33
2023-04-23T03:31:20.913Z,30.80
2023-04-23T03:33:48.645Z,33.65
2023-04-23T03:36:17.709Z,29.83
2023-04-23T03:38:45.337Z,31.17
2023-04-23T03:41:12.986Z,30.55
2023-04-23T03:43:40.661Z,30.38
2023-04-23T03:46:08.330Z,30.05
2023-04-23T03:48:36.090Z,30.02
2023-04-23T03:51:03.738Z,30.75
2023-04-23T03:53:32.796Z,29.20
2023-04-23T03:56:00.460Z,29.27
2023-04-23T03:58:28.092Z,30.63
2023-04-23T04:00:56.013Z,31.17
2023-04-23T04:03:23.863Z,28.50
2023-04-23T04:05:51.919Z,29.67
2023-04-23T04:08:19.802Z,29.90
2023-04-23T04:10:48.864Z,28.33
2023-04-23T04:13:17.115Z,30.75
2023-04-23T04:15:45.086Z,29.50
2023-04-23T04:18:12.768Z,29.67
2023-04-23T04:20:43.353Z,30.13
2023-04-23T04:23:10.999Z,28.80
2023-04-23T04:25:40.207Z,28.95
2023-04-23T04:28:11.685Z,27.73
2023-04-23T04:30:39.811Z,31.48
2023-04-23T04:33:07.438Z,28.92
2023-04-23T04:35:35.057Z,29.53
2023-04-23T04:38:02.733Z,30.98
2023-04-23T04:40:30.523Z,32.33
2023-04-23T04:43:00.213Z,33.05
2023-04-23T04:45:29.316Z,31.83
2023-04-23T04:47:56.998Z,33.22
2023-04-23T04:50:24.699Z,33.72
2023-04-23T04:52:52.474Z,34.78
2023-04-23T04:55:20.388Z,34.85
2023-04-23T04:57:48.020Z,34.50
2023-04-23T05:00:24.363Z,33.33
2023-04-23T05:02:53.698Z,33.15
2023-04-23T05:05:23.145Z,31.67
2023-04-23T05:07:51.093Z,33.27
2023-04-23T05:10:19.168Z,31.10
2023-04-23T05:12:46.809Z,30.85
2023-04-23T05:15:15.205Z,30.27
2023-04-23T05:17:43.270Z,28.83
2023-04-23T05:22:54.935Z,31.92
2023-04-23T05:25:22.907Z,30.23
2023-04-23T05:27:50.575Z,30.50
2023-04-23T05:30:18.241Z,31.05
2023-04-23T05:32:46.034Z,31.17
2023-04-23T05:35:15.138Z,31.42
2023-04-23T05:37:42.802Z,29.95
2023-04-23T05:40:11.257Z,28.35
2023-04-23T05:42:38.960Z,28.40
2023-04-23T05:45:09.082Z,30.10
2023-04-23T05:48:01.338Z,29.17
2023-04-23T05:50:30.666Z,30.38
2023-04-23T05:52:58.374Z,29.90
2023-04-23T05:55:26.275Z,29.95
2023-04-23T05:57:54.214Z,28.40
2023-04-23T06:00:21.908Z,28.30
2023-04-23T06:02:49.725Z,28.00
2023-04-23T06:05:17.590Z,27.88
2023-04-23T06:07:47.022Z,27.38
2023-04-23T06:10:14.733Z,27.17
2023-04-23T06:12:42.516Z,26.67
2023-04-23T06:15:11.540Z,26.73
2023-04-23T06:17:39.988Z,27.67
2023-04-23T06:20:10.789Z,26.80
2023-04-23T06:22:38.972Z,27.08
2023-04-23T06:25:09.021Z,25.70
2023-04-23T06:27:36.697Z,25.90
2023-04-23T06:30:04.792Z,26.53
2023-04-23T06:32:32.747Z,25.42
2023-04-23T06:35:01.965Z,24.17
2023-04-23T06:37:32.152Z,22.70
2023-04-23T06:40:00.340Z,24.10
2023-04-23T06:42:29.413Z,23.08
2023-04-23T06:44:59.543Z,21.98
2023-04-23T06:47:27.277Z,20.30
2023-04-23T06:49:54.961Z,18.83
2023-04-23T06:52:22.637Z,19.27
2023-04-23T06:54:50.296Z,17.27
2023-04-23T06:57:18.448Z,17.25
2023-04-23T06:59:47.523Z,15.57
2023-04-23T07:02:15.564Z,14.55
2023-04-23T07:04:43.710Z,14.93
2023-04-23T07:07:12.096Z,13.32
2023-04-23T07:09:39.814Z,12.68
2023-04-23T07:12:07.521Z,12.35
2023-04-23T07:14:35.634Z,12.70
2023-04-23T07:17:04.899Z,12.73
2023-04-23T07:19:32.581Z,12.15
2023-04-23T07:22:00.378Z,12.45
2023-04-23T07:24:28.171Z,11.65
2023-04-23T07:26:56.116Z,10.80
2023-04-23T07:29:23.902Z,10.02
2023-04-23T07:31:51.692Z,10.38
2023-04-23T07:34:21.195Z,10.10
2023-04-23T07:36:48.860Z,10.37
2023-04-23T07:39:16.776Z,9.80
2023-04-23T07:41:44.547Z,10.15
2023-04-23T07:44:12.522Z,9.95
2023-04-23T07:46:40.453Z,9.82
2023-04-23T07:49:08.606Z,9.45
2023-04-23T07:51:37.825Z,8.90
2023-04-23T07:54:05.836Z,10.07
2023-04-23T07:56:34.272Z,9.18
2023-04-23T07:59:01.956Z,9.43
2023-04-23T08:01:29.922Z,9.77
2023-04-23T08:03:59.671Z,9.80
2023-04-23T08:06:29.926Z,9.93
2023-04-23T08:09:00.511Z,9.63
2023-04-23T08:11:29.614Z,10.48
2023-04-23T08:13:57.802Z,9.57
2023-04-23T08:16:25.546Z,9.63
2023-04-23T08:19:04.111Z,9.07
2023-04-23T08:21:32.964Z,9.00
2023-04-23T08:24:03.125Z,8.80
2023-04-23T08:26:31.156Z,8.55
2023-04-23T08:29:00.633Z,8.80
2023-04-23T08:31:28.626Z,8.30
2023-04-23T08:33:56.557Z,7.53
2023-04-23T08:36:24.472Z,8.30
2023-04-23T08:38:52.491Z,8.25
2023-04-23T08:41:24.582Z,7.88
2023-04-23T08:43:54.344Z,8.18
2023-04-23T08:46:22.708Z,7.25
2023-04-23T08:48:52.337Z,7.78
2023-04-23T08:51:20.720Z,7.93
2023-04-23T08:53:52.329Z,7.38
2023-04-23T08:56:22.730Z,7.00
2023-04-23T08:58:51.607Z,7.00
2023-04-23T09:01:19.690Z,6.65
2023-04-23T09:03:47.848Z,7.28
2023-04-23T09:06:15.624Z,6.95
2023-04-23T09:08:43.376Z,7.10
2023-04-23T09:11:11.217Z,6.43
2023-04-23T09:13:41.619Z,6.13
2023-04-23T09:16:10.263Z,6.18
2023-04-23T09:18:38.824Z,5.38
2023-04-23T09:21:07.072Z,5.40
2023-04-23T09:23:34.774Z,5.60
2023-04-23T09:26:07.064Z,5.43
2023-04-23T09:28:38.544Z,5.30
2023-04-23T09:31:08.117Z,5.05
2023-04-23T09:33:36.617Z,4.93
2023-04-23T09:36:07.050Z,5.03
2023-04-23T09:38:35.634Z,4.95
2023-04-23T09:41:24.329Z,4.55
2023-04-23T09:43:54.525Z,4.68
2023-04-23T09:46:36.202Z,4.50
2023-04-23T09:49:07.706Z,5.10
2023-04-23T09:51:37.535Z,4.30
2023-04-23T09:54:05.988Z,4.25
2023-04-23T09:56:33.791Z,4.20
2023-04-23T09:59:01.580Z,4.07
2023-04-23T10:01:31.039Z,4.00
2023-04-23T10:04:00.698Z,3.83
2023-04-23T10:09:04.798Z,3.20
2023-04-23T10:11:32.536Z,2.55
2023-04-23T10:14:00.640Z,2.60
2023-04-23T10:16:38.670Z,3.33
2023-04-23T10:19:17.306Z,2.42
2023-04-23T10:21:52.705Z,2.53
2023-04-23T10:24:24.833Z,2.17
2023-04-23T10:26:54.107Z,2.00
2023-04-23T10:29:28.384Z,2.00
2023-04-23T10:31:56.992Z,2.03
2023-04-23T10:34:27.263Z,1.85
2023-04-23T10:36:56.695Z,2.10
2023-04-23T10:39:30.105Z,1.55
2023-04-23T10:41:58.685Z,1.70
2023-04-23T10:44:57.448Z,2.17
2023-04-23T10:47:22.894Z,1.77
2023-04-23T10:49:52.904Z,2.00
2023-04-23T10:52:24.362Z,1.85
2023-04-23T10:55:00.030Z,1.80
2023-04-23T10:57:28.147Z,1.52
2023-04-23T11:00:04.580Z,1.60
2023-04-23T11:02:44.835Z,1.90
2023-04-23T11:05:15.487Z,1.67
2023-04-23T11:07:43.119Z,1.40
2023-04-23T11:10:15.474Z,1.70
2023-04-23T11:12:43.283Z,1.75
2023-04-23T11:15:12.544Z,1.65
2023-04-23T11:18:03.863Z,1.55
2023-04-23T11:20:32.958Z,1.77
2023-04-23T11:23:00.973Z,1.23
2023-04-23T11:25:30.421Z,1.50
2023-04-23T11:27:59.439Z,1.45
2023-04-23T11:30:28.420Z,1.08
2023-04-23T11:33:00.040Z,1.75
2023-04-23T11:35:29.551Z,1.07
2023-04-23T11:37:58.691Z,1.60
2023-04-23T11:40:28.135Z,1.30
2023-04-23T11:42:57.558Z,1.35
2023-04-23T11:45:27.427Z,1.40
2023-04-23T11:47:57.073Z,1.85
2023-04-23T11:50:26.603Z,1.40
2023-04-23T11:52:54.920Z,1.50
2023-04-23T11:55:24.583Z,1.42
2023-04-23T11:57:53.570Z,1.10
2023-04-23T12:00:22.890Z,1.20
2023-04-23T12:02:54.547Z,1.30
2023-04-23T12:05:23.513Z,1.20
2023-04-23T12:07:52.353Z,1.33
2023-04-23T12:10:21.254Z,1.10
2023-04-23T12:12:54.368Z,1.10
2023-04-23T12:15:22.405Z,1.15
2023-04-23T12:17:51.550Z,1.13
2023-04-23T12:20:23.095Z,1.10
2023-04-23T12:22:50.753Z,0.95
2023-04-23T12:25:23.588Z,1.23
2023-04-23T12:27:51.651Z,1.27
2023-04-23T12:30:21.053Z,1.23
2023-04-23T12:32:48.766Z,1.17
2023-04-23T12:35:16.443Z,1.08
2023-04-23T12:37:45.434Z,1.50
2023-04-23T12:40:13.294Z,1.52
2023-04-23T12:42:40.912Z,1.40
2023-04-23T12:45:10.326Z,1.38
2023-04-23T12:47:39.554Z,1.30
2023-04-23T12:50:08.527Z,1.20
2023-04-23T12:52:36.350Z,1.17
2023-04-23T12:55:05.306Z,1.10
2023-04-23T12:57:33.076Z,0.95
2023-04-23T13:00:01.175Z,1.02
2023-04-23T13:02:29.135Z,1.00
2023-04-23T13:05:01.594Z,1.20
2023-04-23T13:07:29.272Z,1.10
2023-04-23T13:09:59.626Z,1.10
2023-04-23T13:12:27.480Z,0.98
2023-04-23T13:14:55.130Z,1.13
2023-04-23T13:17:23.417Z,0.82
2023-04-23T13:19:51.563Z,0.57
2023-04-23T13:22:20.879Z,0.90
2023-04-23T13:24:48.919Z,0.40
2023-04-23T13:27:16.624Z,0.50
2023-04-23T13:29:44.630Z,0.50
2023-04-23T13:32:12.642Z,0.52
2023-04-23T13:34:40.518Z,0.57
2023-04-23T13:37:09.401Z,0.40
2023-04-23T13:39:41.688Z,0.50
2023-04-23T13:42:10.289Z,0.60
2023-04-23T13:44:38.459Z,0.70
2023-04-23T13:47:06.253Z,0.60
2023-04-23T13:49:34.227Z,0.43
2023-04-23T13:52:04.392Z,0.80
2023-04-23T13:54:32.132Z,0.70
2023-04-23T13:57:01.467Z,0.70
2023-04-23T13:59:29.184Z,0.50
2023-04-23T14:01:57.118Z,0.40
2023-04-23T14:04:24.955Z,0.50
2023-04-23T14:06:52.826Z,0.68
2023-04-23T14:09:22.562Z,0.60
2023-04-23T14:11:50.461Z,0.70
2023-04-23T14:14:19.771Z,0.80
2023-04-23T14:16:47.589Z,0.60
2023-04-23T14:19:15.485Z,0.57
2023-04-23T14:21:43.146Z,0.80
2023-04-23T14:24:18.891Z,0.80
2023-04-23T14:26:49.779Z,0.80
2023-04-23T14:29:32.344Z,0.65
2023-04-23T14:31:59.982Z,0.80
2023-04-23T14:34:28.065Z,0.80
2023-04-23T14:36:55.739Z,0.70
2023-04-23T14:39:24.494Z,0.70
2023-04-23T14:41:52.629Z,1.02
2023-04-23T14:44:22.399Z,0.60
2023-04-23T14:46:51.617Z,0.88
2023-04-23T14:49:20.752Z,0.90
2023-04-23T14:51:50.065Z,0.80
2023-04-23T14:54:18.056Z,0.73
2023-04-23T14:56:45.989Z,0.88
2023-04-23T14:59:13.957Z,0.90
2023-04-23T15:01:41.772Z,0.90
2023-04-23T15:04:11.378Z,0.80
2023-04-23T15:06:40.451Z,0.95
2023-04-23T15:09:08.235Z,0.73
2023-04-23T15:11:38.982Z,1.02
2023-04-23T15:14:09.903Z,0.85
2023-04-23T15:19:11.442Z,0.68
2023-04-23T15:22:02.095Z,0.80
2023-04-23T15:24:30.314Z,1.00
2023-04-23T15:27:00.795Z,0.73
2023-04-23T15:29:28.532Z,0.70
2023-04-23T15:31:56.569Z,0.70
2023-04-23T15:34:25.627Z,0.90
2023-04-23T15:36:53.230Z,0.80
2023-04-23T15:39:21.396Z,0.60
2023-04-23T15:41:49.067Z,0.60
2023-04-23T15:44:18.182Z,0.80
2023-04-23T15:46:46.295Z,0.90
2023-04-23T15:49:13.924Z,0.80
2023-04-23T15:51:43.018Z,0.70
2023-04-23T15:54:10.891Z,0.77
2023-04-23T15:56:38.557Z,0.90
2023-04-23T15:59:07.668Z,0.80
2023-04-23T16:01:36.155Z,0.75
2023-04-23T16:06:34.719Z,0.73
2023-04-23T16:09:06.865Z,0.88
2023-04-23T16:11:35.656Z,1.30
2023-04-23T16:14:03.654Z,0.88
2023-04-23T16:16:31.644Z,0.70
2023-04-23T16:18:59.674Z,1.00
2023-04-23T16:21:28.101Z,1.17
2023-04-23T16:23:55.956Z,0.88
2023-04-23T16:26:25.325Z,0.90
2023-04-23T16:29:05.757Z,0.80
2023-04-23T16:31:39.736Z,1.17
2023-04-23T16:34:07.736Z,0.60
2023-04-23T16:36:35.533Z,0.80
2023-04-23T16:39:04.356Z,0.70
2023-04-23T16:41:33.677Z,0.80
2023-04-23T16:44:01.668Z,0.70
2023-04-23T16:46:31.005Z,0.90
2023-04-23T16:48:59.340Z,0.73
2023-04-23T16:51:29.886Z,0.80
2023-04-23T16:53:58.107Z,0.73
2023-04-23T16:56:26.304Z,0.80
2023-04-23T16:58:55.407Z,0.68
2023-04-23T17:01:23.339Z,0.82
2023-04-23T17:03:51.366Z,0.90
2023-04-23T17:06:28.072Z,1.30
2023-04-23T17:08:57.732Z,1.00
2023-04-23T17:11:26.096Z,1.40
2023-04-23T17:13:56.023Z,1.03
2023-04-23T17:16:25.271Z,1.30
2023-04-23T17:18:53.062Z,1.13
2023-04-23T17:21:20.944Z,0.80
2023-04-23T17:23:49.181Z,1.00
2023-04-23T17:26:16.907Z,0.75
2023-04-23T17:28:44.583Z,0.70
2023-04-23T17:31:13.688Z,0.80
2023-04-23T17:33:43.602Z,0.90
2023-04-23T17:36:11.633Z,1.00
2023-04-23T17:38:39.353Z,0.70
2023-04-23T17:41:07.054Z,0.90
2023-04-23T17:43:35.878Z,1.00
2023-04-23T17:46:03.785Z,0.80
2023-04-23T17:48:32.908Z,0.90
2023-04-23T17:51:00.812Z,1.13
2023-04-23T17:53:28.522Z,1.00
2023-04-23T17:56:00.516Z,0.93
2023-04-23T17:58:28.749Z,1.10
2023-04-23T18:00:56.770Z,0.88
2023-04-23T18:03:24.770Z,1.10
2023-04-23T18:05:54.124Z,1.30
2023-04-23T18:08:21.894Z,1.10
2023-04-23T18:10:49.606Z,1.07
2023-04-23T18:13:18.350Z,1.48
2023-04-23T18:15:49.915Z,1.20
2023-04-23T18:18:18.287Z,1.40
2023-04-23T18:20:49.271Z,1.17
2023-04-23T18:23:20.876Z,1.60
2023-04-23T18:25:48.816Z,1.48
2023-04-23T18:28:16.618Z,1.40
2023-04-23T18:30:44.492Z,1.25
2023-04-23T18:33:25.105Z,1.50
2023-04-23T18:35:58.509Z,1.50
2023-04-23T18:38:32.843Z,1.42
2023-04-23T18:41:02.851Z,1.63
2023-04-23T18:43:31.805Z,1.83
2023-04-23T18:46:00.050Z,1.70
2023-04-23T18:48:42.579Z,1.92
2023-04-23T18:51:23.039Z,1.90
2023-04-23T18:53:52.250Z,1.73
2023-04-23T18:56:19.935Z,1.60
2023-04-23T18:58:47.616Z,1.70
2023-04-23T19:01:15.318Z,1.80
2023-04-23T19:03:43.228Z,1.60
2023-04-23T19:06:11.154Z,1.90
2023-04-23T19:08:38.889Z,1.95
2023-04-23T19:11:08.093Z,1.40
2023-04-23T19:13:35.842Z,1.60
2023-04-23T19:16:04.175Z,1.60
2023-04-23T19:18:31.943Z,1.40
2023-04-23T19:20:59.926Z,1.42
2023-04-23T19:23:27.660Z,1.10
2023-04-23T19:25:55.684Z,1.30
2023-04-23T19:28:25.341Z,1.40
2023-04-23T19:30:53.198Z,1.30
2023-04-23T19:33:20.862Z,1.23
2023-04-23T19:35:48.594Z,1.50
2023-04-23T19:38:16.314Z,1.48
2023-04-23T19:40:44.192Z,1.35
2023-04-23T19:43:12.864Z,1.73
2023-04-23T19:45:42.112Z,2.00
2023-04-23T19:48:10.028Z,2.10
2023-04-23T19:50:37.719Z,1.90
2023-04-23T19:53:06.131Z,2.10
2023-04-23T19:55:34.130Z,2.10
2023-04-23T19:58:06.628Z,2.00
2023-04-23T20:00:37.452Z,1.83
2023-04-23T20:03:06.901Z,2.50
2023-04-23T20:05:34.877Z,1.80
2023-04-23T20:08:04.558Z,2.00
2023-04-23T20:10:32.289Z,1.40
2023-04-23T20:12:59.992Z,2.00
2023-04-23T20:15:28.359Z,1.48
2023-04-23T20:17:56.159Z,1.80
2023-04-23T20:20:25.679Z,1.75
2023-04-23T20:22:53.474Z,1.70
2023-04-23T20:25:25.593Z,1.83
2023-04-23T20:27:53.689Z,2.40
2023-04-23T20:30:21.397Z,2.40
2023-04-23T20:32:49.176Z,1.75
2023-04-23T20:35:17.368Z,1.48
2023-04-23T20:37:46.491Z,1.45
2023-04-23T20:40:14.442Z,1.57
2023-04-23T20:42:42.462Z,1.05
2023-04-23T20:45:13.061Z,1.30
2023-04-23T20:47:41.442Z,1.13
2023-04-23T20:50:09.923Z,1.40
2023-04-23T20:52:37.845Z,1.45
2023-04-23T20:55:07.693Z,1.17
2023-04-23T20:57:36.950Z,1.40
2023-04-23T21:00:07.200Z,1.20
2023-04-23T21:02:37.882Z,1.50
2023-04-23T21:05:07.737Z,1.40
2023-04-23T21:07:36.702Z,1.40
2023-04-23T21:10:04.740Z,1.30
2023-04-23T21:12:34.086Z,1.55
2023-04-23T21:15:01.928Z,1.45
2023-04-23T21:17:29.702Z,1.40
2023-04-23T21:19:57.421Z,1.55
2023-04-23T21:22:25.087Z,1.20
2023-04-23T21:24:52.761Z,1.45
2023-04-23T21:27:22.149Z,1.60
2023-04-23T21:29:51.516Z,1.40
2023-04-23T21:32:19.267Z,1.80
2023-04-23T21:34:46.952Z,1.45
2023-04-23T21:37:14.623Z,1.50
2023-04-23T21:39:42.701Z,1.70
2023-04-23T21:42:10.549Z,1.58
2023-04-23T21:44:38.347Z,1.30
2023-04-23T21:47:07.971Z,1.50
2023-04-23T21:49:35.841Z,1.13
2023-04-23T21:52:03.614Z,1.30
2023-04-23T21:54:31.349Z,0.70
2023-04-23T21:56:59.192Z,0.47
2023-04-23T21:59:26.972Z,0.60
2023-04-23T22:01:54.661Z,0.65
2023-04-23T22:04:27.696Z,0.43
2023-04-23T22:06:55.684Z,0.47
2023-04-23T22:09:23.494Z,0.40
2023-04-23T22:12:01.543Z,0.70
2023-04-23T22:14:30.555Z,0.60
2023-04-23T22:16:59.480Z,0.40
2023-04-23T22:19:28.655Z,0.57
2023-04-23T22:21:56.673Z,0.50
2023-04-23T22:24:24.754Z,0.63
2023-04-23T22:26:52.687Z,0.60
2023-04-23T22:29:20.414Z,0.40
2023-04-23T22:31:48.162Z,0.50
2023-04-23T22:34:15.857Z,0.65
2023-04-23T22:36:44.896Z,0.80
2023-04-23T22:39:12.941Z,0.70
2023-04-23T22:44:39.600Z,0.90
2023-04-23T22:47:07.377Z,1.05
2023-04-23T22:49:35.764Z,1.00
2023-04-23T22:52:05.281Z,0.98
2023-04-23T22:54:33.008Z,0.82
2023-04-23T22:57:01.115Z,0.88
2023-04-23T22:59:28.852Z,0.97
2023-04-23T23:01:56.766Z,0.82
2023-04-23T23:04:24.536Z,0.63
2023-04-23T23:06:52.234Z,0.77
2023-04-23T23:09:21.368Z,0.65
2023-04-23T23:11:49.084Z,0.60
2023-04-23T23:14:16.912Z,0.70
2023-04-23T23:16:44.831Z,0.80
2023-04-23T23:19:13.253Z,1.10
2023-04-23T23:21:41.342Z,0.80
2023-04-23T23:24:09.241Z,0.90
2023-04-23T23:26:38.352Z,0.80
2023-04-23T23:29:06.113Z,1.00
2023-04-23T23:31:36.938Z,1.10
2023-04-23T23:34:04.833Z,1.10
2023-04-23T23:36:33.843Z,1.20
2023-04-23T23:39:01.852Z,1.10
2023-04-23T23:41:29.580Z,1.02
2023-04-23T23:43:58.647Z,1.30
2023-04-23T23:46:26.561Z,1.33
2023-04-23T23:48:54.369Z,1.17
2023-04-23T23:51:22.130Z,1.10
2023-04-23T23:53:49.932Z,1.40
2023-04-23T23:56:17.689Z,1.20
2023-04-23T23:58:45.397Z,1.23
